Thursday, April 02, 2015
04:28 UTC
  |  Log In   |  Register Free
Airport Search:

Lawrence Smith Memorial Airport
(KLRY)

Lawrence Smith Memorial Airport Diagram
No Airport Diagram Available

FAA data valid effective March 05, 2015 - April 30, 2015 (unless otherwise noted).

 
 
 
 
 
 
 
 
 
 
 
 
 
 

Current Aviation Weather for Lawrence Smith Memorial Airport (KLRY)

METAR data is unavailable for LRY. The nearest METAR location is at KLXT (21 nm NW from LRY).

The most recent METAR observation for KLXT was updated at: 0412
METAR Summary (Translated METAR)
KLXT
020353Z AUTO 17014G19KT 9SM BKN008 16/14 A2969 RMK AO2 SLP049 T01610144
(21 nm NW from KLRY)
KOJC
020353Z AUTO 17017G21KT 8SM OVC006 17/16 A2968 RMK AO2 SLP043 T01670156
(23.3 nm NW from KLRY)
TAF
No TAF information found within 50 nm of KLXT
  Airport Weather Conditions for KLRY

Current weather conditions are
not available for LRY


The nearest NOAA weather station
is at LXT, (21 nm NW from LRY)
  
 Current Weather at LXT
61° F
Mostly Cloudy
South winds at 16.1 mph
LXT NOAA Radar

Pressure: 29.69 in
Humidity: 90%
Wind: from the South at 16.1 gusting to 21.9 MPH (14 gusting to 19 KT)
Dew Point: 57.9°F
Visibility: 9.00 mi


Airport Weather Forecast for KLRY

Translated METAR and TAF for KLXT
Translated METAR for KLXT (0427 UTC 02 April 2015)
found at http://aviationweather.gov/adds/metars/
 
METAR text: KLXT 020353Z AUTO 17014G19KT 9SM BKN008 16/14 A2969 RMK AO2 SLP049 T01610144
Conditions at: KLXT (LEES SUMMIT MUNI, MO, US) observed 0353 UTC 02 April 2015
Temperature: 16.1°C (61°F)
Dewpoint: 14.4°C (58°F) [RH = 90%]
Pressure (altimeter): 29.69 inches Hg (1005.5 mb)
[Sea-level pressure: 1004.9 mb]
Winds: from the S (170 degrees) at 16 MPH (14 knots; 7.3 m/s)
gusting to 22 MPH (19 knots; 9.9 m/s)
Visibility: 9 miles (14 km)
Ceiling: 800 feet AGL
Clouds: broken clouds at 800 feet AGL
Weather: automated observation with no human augmentation;
there may or may not be significant weather present at this time
Translated TAF for KLXT

There is no translated TAF available for this airport

Find All Airport Services Find A Hotel Find A Rental Car Find A Golf Course Find A Restaurant $100 Hamburger



FBO's on the Field
FBO Company Facility Photos Services Transportation Aviation Fuel Prices: Prices include tax
Catering Weather Repair Courtesy Rental Type 100LL JetA JetA+ MOGAS 8087
 
City of Harrisonville

This FBO has not yet been rated
FS:Phillips 66
Last Updated: Mar-23
Login to update fuel prices
SS:
Contact City of HarrisonvilleMore FBO Information
 
Add another FBO Facility Photos Catering Weather Repair Courtesy Rental Type 100LL JetA JetA+ MOGAS 8087
Services Transportation Aviation Fuel Prices: Prices include tax


model-print
model-print
model-print
model-print